createdAt,value
2018-04-28T00:01:39.060Z,13.35
2018-04-28T00:04:06.452Z,13.29
2018-04-28T00:06:34.640Z,13.18
2018-04-28T00:09:02.049Z,13.14
2018-04-28T00:11:29.436Z,13.22
2018-04-28T00:13:56.935Z,13.35
2018-04-28T00:16:25.105Z,13.30
2018-04-28T00:19:02.840Z,13.38
2018-04-28T00:21:30.947Z,13.31
2018-04-28T00:23:58.429Z,13.31
2018-04-28T00:26:25.982Z,13.18
2018-04-28T00:28:54.097Z,13.09
2018-04-28T00:34:20.198Z,13.19
2018-04-28T00:37:01.131Z,13.10
2018-04-28T00:39:28.509Z,13.12
2018-04-28T00:41:57.532Z,13.21
2018-04-28T00:44:29.545Z,13.26
2018-04-28T00:47:18.481Z,13.19
2018-04-28T00:49:50.479Z,13.34
2018-04-28T00:52:33.661Z,13.18
2018-04-28T00:55:05.600Z,12.98
2018-04-28T01:00:44.706Z,12.70
2018-04-28T01:03:12.087Z,12.57
2018-04-28T01:05:46.088Z,12.55
2018-04-28T01:08:13.560Z,12.49
2018-04-28T01:10:40.939Z,12.52
2018-04-28T01:13:11.032Z,12.41
2018-04-28T01:15:38.420Z,12.28
2018-04-28T01:21:05.126Z,11.95
2018-04-28T01:23:39.066Z,12.03
2018-04-28T01:26:13.452Z,12.09
2018-04-28T01:28:47.320Z,12.14
2018-04-28T01:31:29.595Z,12.20
2018-04-28T01:40:12.080Z,12.02
2018-04-28T01:42:45.980Z,11.96
2018-04-28T01:45:23.945Z,11.96
2018-04-28T01:47:58.094Z,11.84
2018-04-28T01:50:25.473Z,11.81
2018-04-28T01:52:59.500Z,11.80
2018-04-28T01:58:41.131Z,11.89
2018-04-28T02:01:16.064Z,11.89
2018-04-28T02:06:57.985Z,11.95
2018-04-28T02:09:25.377Z,11.84
2018-04-28T02:11:55.601Z,11.66
2018-04-28T02:14:27.883Z,11.55
2018-04-28T02:16:59.596Z,11.50
2018-04-28T02:22:28.246Z,11.35
2018-04-28T02:28:20.200Z,11.46
2018-04-28T02:30:49.380Z,11.45
2018-04-28T02:33:16.789Z,11.43
2018-04-28T02:35:55.619Z,11.41
2018-04-28T02:38:28.823Z,11.35
2018-04-28T02:44:06.207Z,11.53
2018-04-28T02:46:37.389Z,11.59
2018-04-28T02:49:12.639Z,11.90
2018-04-28T02:51:48.874Z,11.94
2018-04-28T02:54:19.122Z,11.80
2018-04-28T02:59:48.977Z,11.52
2018-04-28T03:05:18.899Z,11.53
2018-04-28T03:08:01.152Z,11.30
2018-04-28T03:10:39.155Z,11.27
2018-04-28T03:13:26.104Z,11.24
2018-04-28T03:15:59.092Z,11.21
2018-04-28T03:18:36.896Z,11.03
2018-04-28T03:21:04.284Z,10.96
2018-04-28T03:23:38.009Z,10.97
2018-04-28T03:26:07.734Z,10.92
2018-04-28T03:28:47.702Z,10.94
2018-04-28T03:31:19.069Z,11.11
2018-04-28T03:37:08.025Z,10.94
2018-04-28T03:39:36.328Z,10.87
2018-04-28T03:42:03.707Z,10.79
2018-04-28T03:44:32.574Z,10.81
2018-04-28T03:49:58.307Z,11.06
2018-04-28T03:52:25.695Z,11.15
2018-04-28T03:54:55.785Z,11.07
2018-04-28T03:57:35.661Z,10.95
2018-04-28T04:00:14.838Z,11.00
2018-04-28T04:02:54.002Z,10.95
2018-04-28T04:08:25.913Z,11.04
2018-04-28T04:13:54.012Z,10.98
2018-04-28T04:16:31.947Z,10.98
2018-04-28T04:22:13.956Z,11.70
2018-04-28T04:24:42.713Z,11.96
2018-04-28T04:27:10.935Z,12.15
2018-04-28T04:29:49.023Z,12.24
2018-04-28T04:32:18.412Z,12.09
2018-04-28T04:34:52.439Z,11.81
2018-04-28T04:40:59.623Z,11.70
2018-04-28T04:43:44.786Z,11.54
2018-04-28T04:46:14.659Z,11.56
2018-04-28T04:48:52.076Z,11.50
2018-04-28T04:51:26.056Z,11.49
2018-04-28T04:53:57.817Z,11.56
2018-04-28T04:59:45.912Z,11.82
2018-04-28T05:02:16.904Z,11.93
2018-04-28T05:04:52.779Z,11.95
2018-04-28T05:10:45.294Z,11.96
2018-04-28T05:13:24.485Z,12.20
2018-04-28T05:15:57.504Z,12.28
2018-04-28T05:18:31.884Z,12.46
2018-04-28T05:21:05.260Z,12.62
2018-04-28T05:23:46.119Z,12.69
2018-04-28T05:26:25.382Z,12.69
2018-04-28T05:29:04.660Z,12.71
2018-04-28T05:34:37.972Z,12.31
2018-04-28T05:37:17.261Z,12.65
2018-04-28T05:40:06.331Z,12.93
2018-04-28T05:42:39.232Z,13.24
2018-04-28T05:45:13.190Z,13.36
2018-04-28T05:51:06.332Z,13.43
2018-04-28T05:56:58.630Z,13.33
2018-04-28T05:59:37.924Z,13.38
2018-04-28T06:02:17.660Z,13.06
2018-04-28T06:07:51.482Z,12.90
2018-04-28T06:10:26.582Z,13.11
2018-04-28T06:13:09.896Z,13.08
2018-04-28T06:15:46.566Z,13.10
2018-04-28T06:18:24.424Z,13.20
2018-04-28T06:20:51.821Z,13.30
2018-04-28T06:23:19.227Z,13.55
2018-04-28T06:25:46.611Z,13.73
2018-04-28T06:28:14.017Z,13.74
2018-04-28T06:30:41.423Z,13.82
2018-04-28T06:33:09.676Z,14.10
2018-04-28T06:35:37.593Z,14.32
2018-04-28T06:38:05.332Z,14.51
2018-04-28T06:40:33.653Z,14.63
2018-04-28T06:43:01.304Z,14.61
2018-04-28T06:45:28.711Z,14.43
2018-04-28T06:47:56.097Z,14.37
2018-04-28T06:50:23.500Z,13.95
2018-04-28T06:52:51.051Z,13.93
2018-04-28T06:55:18.646Z,14.17
2018-04-28T06:57:46.028Z,14.49
2018-04-28T07:00:14.323Z,14.51
2018-04-28T07:02:41.703Z,14.45
2018-04-28T07:05:09.104Z,14.39
2018-04-28T07:07:36.860Z,14.45
2018-04-28T07:10:04.618Z,14.48
2018-04-28T07:12:32.012Z,14.53
2018-04-28T07:14:59.406Z,14.29
2018-04-28T07:17:26.796Z,14.40
2018-04-28T07:19:54.197Z,14.62
2018-04-28T07:22:21.573Z,14.29
2018-04-28T07:24:50.147Z,14.58
2018-04-28T07:27:17.544Z,14.84
2018-04-28T07:29:44.944Z,14.93
2018-04-28T07:32:12.336Z,15.02
2018-04-28T07:34:39.739Z,15.22
2018-04-28T07:37:08.001Z,15.22
2018-04-28T07:39:35.369Z,15.07
2018-04-28T07:42:02.763Z,14.99
2018-04-28T07:44:30.160Z,14.93
2018-04-28T07:46:57.561Z,15.14
2018-04-28T07:49:24.972Z,15.48
2018-04-28T07:51:52.359Z,15.70
2018-04-28T07:54:19.748Z,15.89
2018-04-28T07:56:47.141Z,15.75
2018-04-28T07:59:15.521Z,16.05
2018-04-28T08:01:42.907Z,16.36
2018-04-28T08:04:10.289Z,16.27
2018-04-28T08:06:37.724Z,16.29
2018-04-28T08:09:05.301Z,16.32
2018-04-28T08:11:32.684Z,16.35
2018-04-28T08:14:00.080Z,16.17
2018-04-28T08:16:27.553Z,16.19
2018-04-28T08:18:54.928Z,16.20
2018-04-28T08:21:22.333Z,16.20
2018-04-28T08:23:49.763Z,16.35
2018-04-28T08:26:17.152Z,16.12
2018-04-28T08:28:45.468Z,16.23
2018-04-28T08:31:12.852Z,16.04
2018-04-28T08:33:40.404Z,16.18
2018-04-28T08:36:07.820Z,16.22
2018-04-28T08:38:35.213Z,16.08
2018-04-28T08:41:02.606Z,15.87
2018-04-28T08:43:30.014Z,15.86
2018-04-28T08:45:57.413Z,15.77
2018-04-28T08:48:24.792Z,15.80
2018-04-28T08:50:52.183Z,16.01
2018-04-28T08:53:19.588Z,16.38
2018-04-28T08:55:46.993Z,16.59
2018-04-28T08:58:14.366Z,16.10
2018-04-28T09:00:57.376Z,16.19
2018-04-28T09:03:24.761Z,16.26
2018-04-28T09:05:52.214Z,16.44
2018-04-28T09:08:19.593Z,16.53
2018-04-28T09:10:47.002Z,16.66
2018-04-28T09:13:14.392Z,16.32
2018-04-28T09:15:41.855Z,16.34
2018-04-28T09:18:09.257Z,16.75
2018-04-28T09:20:36.644Z,16.73
2018-04-28T09:23:04.032Z,16.76
2018-04-28T09:25:31.441Z,16.84
2018-04-28T09:27:58.827Z,16.93
2018-04-28T09:30:26.230Z,16.77
2018-04-28T09:32:54.169Z,16.84
2018-04-28T09:35:21.557Z,17.18
2018-04-28T09:37:48.947Z,17.41
2018-04-28T09:40:16.331Z,17.79
2018-04-28T09:42:43.852Z,17.69
2018-04-28T09:45:11.237Z,17.50
2018-04-28T09:47:38.639Z,17.26
2018-04-28T09:50:06.021Z,17.12
2018-04-28T09:52:33.558Z,16.95
2018-04-28T09:55:00.938Z,16.92
2018-04-28T09:57:28.336Z,17.18
2018-04-28T09:59:55.910Z,17.16
2018-04-28T10:02:23.296Z,16.96
2018-04-28T10:04:55.145Z,16.63
2018-04-28T10:07:22.545Z,16.99
2018-04-28T10:09:49.937Z,16.92
2018-04-28T10:12:17.448Z,16.64
2018-04-28T10:14:44.853Z,16.81
2018-04-28T10:17:12.251Z,16.75
2018-04-28T10:19:39.632Z,16.88
2018-04-28T10:22:08.709Z,16.30
2018-04-28T10:24:36.099Z,16.10
2018-04-28T10:27:03.527Z,16.41
2018-04-28T10:29:31.108Z,15.97
2018-04-28T10:31:58.509Z,15.91
2018-04-28T10:34:26.016Z,15.63
2018-04-28T10:36:53.697Z,15.69
2018-04-28T10:39:21.088Z,15.49
2018-04-28T10:41:48.496Z,15.49
2018-04-28T10:44:15.894Z,15.73
2018-04-28T10:46:43.421Z,15.90
2018-04-28T10:52:03.472Z,16.06
2018-04-28T10:54:31.101Z,16.07
2018-04-28T10:56:58.552Z,16.49
2018-04-28T10:59:25.873Z,16.45
2018-04-28T11:01:53.259Z,16.65
2018-04-28T11:04:20.855Z,16.81
2018-04-28T11:06:48.261Z,16.82
2018-04-28T11:09:15.641Z,16.81
2018-04-28T11:11:43.042Z,16.72
2018-04-28T11:14:10.436Z,16.92
2018-04-28T11:16:37.836Z,16.89
2018-04-28T11:19:05.234Z,16.77
2018-04-28T11:21:33.181Z,16.55
2018-04-28T11:24:00.710Z,16.73
2018-04-28T11:26:28.099Z,16.80
2018-04-28T11:28:55.640Z,16.77
2018-04-28T11:31:23.008Z,17.00
2018-04-28T11:33:51.315Z,17.31
2018-04-28T11:36:18.709Z,17.61
2018-04-28T11:38:46.223Z,17.51
2018-04-28T11:41:13.604Z,17.21
2018-04-28T11:43:41.059Z,16.98
2018-04-28T11:46:08.473Z,17.42
2018-04-28T11:48:35.971Z,17.44
2018-04-28T11:51:03.385Z,17.73
2018-04-28T11:53:30.781Z,17.28
2018-04-28T11:55:59.737Z,17.49
2018-04-28T11:58:27.146Z,17.50
2018-04-28T12:00:54.552Z,17.37
2018-04-28T12:03:22.061Z,17.35
2018-04-28T12:05:49.515Z,17.20
2018-04-28T12:08:16.844Z,17.28
2018-04-28T12:10:44.211Z,17.68
2018-04-28T12:13:11.712Z,18.38
2018-04-28T12:15:40.288Z,18.82
2018-04-28T12:18:07.676Z,18.12
2018-04-28T12:20:35.070Z,18.22
2018-04-28T12:23:02.469Z,17.87
2018-04-28T12:25:29.868Z,18.18
2018-04-28T12:27:57.272Z,18.16
2018-04-28T12:30:24.755Z,18.09
2018-04-28T12:32:52.152Z,18.36
2018-04-28T12:35:19.532Z,18.09
2018-04-28T12:37:47.064Z,18.03
2018-04-28T12:40:14.449Z,18.74
2018-04-28T12:42:41.921Z,19.16
2018-04-28T12:45:09.317Z,19.35
2018-04-28T12:47:36.876Z,19.16
2018-04-28T12:50:04.265Z,18.26
2018-04-28T12:52:31.653Z,18.09
2018-04-28T12:54:59.044Z,18.28
2018-04-28T12:57:26.531Z,18.59
2018-04-28T12:59:53.890Z,18.61
2018-04-28T13:02:21.272Z,18.26
2018-04-28T13:04:48.734Z,18.39
2018-04-28T13:07:16.119Z,18.45
2018-04-28T13:09:44.534Z,18.48
2018-04-28T13:12:12.186Z,18.31
2018-04-28T13:14:39.572Z,18.60
2018-04-28T13:17:06.983Z,18.62
2018-04-28T13:19:34.368Z,18.33
2018-04-28T13:24:54.467Z,18.53
2018-04-28T13:27:21.851Z,18.37
2018-04-28T13:29:49.297Z,18.50
2018-04-28T13:32:16.941Z,18.47
2018-04-28T13:34:44.343Z,18.61
2018-04-28T13:37:11.746Z,18.80
2018-04-28T13:39:39.213Z,19.31
2018-04-28T13:45:06.773Z,19.03
2018-04-28T13:47:36.269Z,18.84
2018-04-28T13:50:03.684Z,18.95
2018-04-28T13:52:31.083Z,19.36
2018-04-28T13:54:58.751Z,19.85
2018-04-28T13:57:26.135Z,19.90
2018-04-28T13:59:53.537Z,20.12
2018-04-28T14:02:20.918Z,20.42
2018-04-28T14:04:48.553Z,20.64
2018-04-28T14:07:15.948Z,20.33
2018-04-28T14:09:43.375Z,20.07
2018-04-28T14:12:10.774Z,19.73
2018-04-28T14:14:38.244Z,19.82
2018-04-28T14:17:05.629Z,19.75
2018-04-28T14:19:34.120Z,19.79
2018-04-28T14:22:01.541Z,19.74
2018-04-28T14:24:28.956Z,19.56
2018-04-28T14:26:56.356Z,19.43
2018-04-28T14:29:23.750Z,19.37
2018-04-28T14:31:51.185Z,19.73
2018-04-28T14:34:18.594Z,19.82
2018-04-28T14:36:45.973Z,20.02
2018-04-28T14:39:13.380Z,19.80
2018-04-28T14:41:40.777Z,19.66
2018-04-28T14:44:08.179Z,20.27
2018-04-28T14:46:35.580Z,20.40
2018-04-28T14:49:03.270Z,20.05
2018-04-28T14:51:30.660Z,20.14
2018-04-28T14:53:58.069Z,20.37
2018-04-28T14:56:25.615Z,20.21
2018-04-28T14:58:53.052Z,20.18
2018-04-28T15:01:20.489Z,20.11
2018-04-28T15:03:47.832Z,20.19
2018-04-28T15:06:15.233Z,20.49
2018-04-28T15:08:42.618Z,20.28
2018-04-28T15:11:10.018Z,20.61
2018-04-28T15:13:37.432Z,20.35
2018-04-28T15:16:05.099Z,20.03
2018-04-28T15:18:32.718Z,20.34
2018-04-28T15:21:00.113Z,20.13
2018-04-28T15:23:27.484Z,20.42
2018-04-28T15:25:55.325Z,20.54
2018-04-28T15:28:22.785Z,20.45
2018-04-28T15:30:50.131Z,20.52
2018-04-28T15:35:51.417Z,20.43
2018-04-28T15:38:18.806Z,20.51
2018-04-28T15:40:46.527Z,20.28
2018-04-28T15:43:13.946Z,20.57
2018-04-28T15:45:41.330Z,20.43
2018-04-28T15:48:08.734Z,20.64
2018-04-28T15:50:37.167Z,20.76
2018-04-28T15:53:04.567Z,20.85
2018-04-28T15:55:31.961Z,20.16
2018-04-28T15:58:00.101Z,20.06
2018-04-28T16:00:27.490Z,19.86
2018-04-28T16:02:54.879Z,19.88
2018-04-28T16:05:22.290Z,19.66
2018-04-28T16:07:49.680Z,19.54
2018-04-28T16:10:17.077Z,19.43
2018-04-28T16:12:44.473Z,19.47
2018-04-28T16:15:11.872Z,19.66
2018-04-28T16:17:39.263Z,19.49
2018-04-28T16:20:06.659Z,19.54
2018-04-28T16:22:34.061Z,19.74
2018-04-28T16:25:02.206Z,19.68
2018-04-28T16:27:29.627Z,19.81
2018-04-28T16:29:57.020Z,20.13
2018-04-28T16:32:24.660Z,20.14
2018-04-28T16:34:52.062Z,19.79
2018-04-28T16:37:19.461Z,19.74
2018-04-28T16:39:47.056Z,19.45
2018-04-28T16:42:14.431Z,19.32
2018-04-28T16:44:41.818Z,19.07
2018-04-28T16:47:09.221Z,19.04
2018-04-28T16:49:36.742Z,19.10
2018-04-28T16:52:04.962Z,19.17
2018-04-28T16:54:32.355Z,19.05
2018-04-28T16:56:59.787Z,18.72
2018-04-28T16:59:27.321Z,18.59
2018-04-28T17:01:54.805Z,18.43
2018-04-28T17:04:22.199Z,18.39
2018-04-28T17:06:49.932Z,18.37
2018-04-28T17:09:17.320Z,18.31
2018-04-28T17:11:45.413Z,18.38
2018-04-28T17:14:12.800Z,18.37
2018-04-28T17:16:40.192Z,18.15
2018-04-28T17:19:07.580Z,18.11
2018-04-28T17:21:34.972Z,18.02
2018-04-28T17:24:02.508Z,17.95
2018-04-28T17:26:29.919Z,17.97
2018-04-28T17:28:57.292Z,17.98
2018-04-28T17:31:24.721Z,18.03
2018-04-28T17:33:52.494Z,17.88
2018-04-28T17:36:19.873Z,17.86
2018-04-28T17:38:47.259Z,17.84
2018-04-28T17:41:14.665Z,17.75
2018-04-28T17:43:42.052Z,17.74
2018-04-28T17:46:09.453Z,17.66
2018-04-28T17:48:36.847Z,17.68
2018-04-28T17:51:04.255Z,17.61
2018-04-28T17:53:31.647Z,17.65
2018-04-28T17:55:59.037Z,17.49
2018-04-28T17:58:26.934Z,17.49
2018-04-28T18:00:55.968Z,17.45
2018-04-28T18:03:23.378Z,17.37
2018-04-28T18:05:50.961Z,17.35
2018-04-28T18:08:19.052Z,17.31
2018-04-28T18:10:46.429Z,17.17
2018-04-28T18:13:13.831Z,17.15
2018-04-28T18:15:41.214Z,17.03
2018-04-28T18:18:08.605Z,17.11
2018-04-28T18:20:36.128Z,16.98
2018-04-28T18:23:03.773Z,16.98
2018-04-28T18:25:31.151Z,16.94
2018-04-28T18:27:58.540Z,16.88
2018-04-28T18:30:26.022Z,16.83
2018-04-28T18:32:53.416Z,16.79
2018-04-28T18:35:20.804Z,16.73
2018-04-28T18:37:48.241Z,16.70
2018-04-28T18:40:16.027Z,16.74
2018-04-28T18:42:43.429Z,16.62
2018-04-28T18:45:11.515Z,16.65
2018-04-28T18:47:38.952Z,16.68
2018-04-28T18:50:06.802Z,16.73
2018-04-28T18:52:34.191Z,16.82
2018-04-28T18:55:01.641Z,16.70
2018-04-28T18:57:29.036Z,16.63
2018-04-28T18:59:56.452Z,16.65
2018-04-28T19:02:23.839Z,16.61
2018-04-28T19:04:51.235Z,16.54
2018-04-28T19:07:18.629Z,16.59
2018-04-28T19:09:47.012Z,16.50
2018-04-28T19:12:16.108Z,16.44
2018-04-28T19:14:44.240Z,16.38
2018-04-28T19:17:11.793Z,16.38
2018-04-28T19:19:39.180Z,16.35
2018-04-28T19:22:06.596Z,16.41
2018-04-28T19:24:33.977Z,16.22
2018-04-28T19:27:01.423Z,16.12
2018-04-28T19:29:28.824Z,16.20
2018-04-28T19:31:56.216Z,16.18
2018-04-28T19:34:23.620Z,16.16
2018-04-28T19:36:50.991Z,16.17
2018-04-28T19:39:18.392Z,16.17
2018-04-28T19:41:45.799Z,16.02
2018-04-28T19:44:13.411Z,15.82
2018-04-28T19:46:40.819Z,15.49
2018-04-28T19:49:08.199Z,15.36
2018-04-28T19:51:35.601Z,15.55
2018-04-28T19:54:02.998Z,15.50
2018-04-28T22:02:37.040Z,13.58
2018-04-28T22:05:04.454Z,13.77
2018-04-28T22:07:31.832Z,13.63
2018-04-28T22:09:59.224Z,13.51
2018-04-28T22:12:26.614Z,13.50
2018-04-28T22:14:54.796Z,13.46
2018-04-28T22:17:22.184Z,13.82
2018-04-28T22:19:49.569Z,13.88
2018-04-28T22:22:17.443Z,13.89
2018-04-28T22:24:44.839Z,13.81
2018-04-28T22:27:12.230Z,13.72
2018-04-28T22:29:39.623Z,13.76
2018-04-28T22:32:07.358Z,13.59
2018-04-28T22:34:37.657Z,13.33
2018-04-28T22:37:05.043Z,13.05
2018-04-28T22:39:32.440Z,12.93
2018-04-28T22:41:59.908Z,12.75
2018-04-28T22:44:27.340Z,12.88
2018-04-28T22:46:54.844Z,12.41
2018-04-28T22:49:22.239Z,12.22
2018-04-28T22:51:49.628Z,12.21
2018-04-28T22:54:17.096Z,12.04
2018-04-28T22:56:44.477Z,12.00
2018-04-28T22:59:11.867Z,11.92
2018-04-28T23:01:39.309Z,11.84
2018-04-28T23:04:06.925Z,11.54
2018-04-28T23:06:34.319Z,11.68
2018-04-28T23:09:01.699Z,11.78
2018-04-28T23:11:29.091Z,11.78
2018-04-28T23:13:56.544Z,11.73
2018-04-28T23:16:23.940Z,11.88
2018-04-28T23:18:51.319Z,11.90
2018-04-28T23:21:18.821Z,12.14
2018-04-28T23:23:46.200Z,12.33
2018-04-28T23:32:19.717Z,12.30
2018-04-28T23:34:47.118Z,12.21
2018-04-28T23:37:15.204Z,11.94
2018-04-28T23:39:42.599Z,11.89
2018-04-28T23:42:10.982Z,11.84
2018-04-28T23:44:38.432Z,11.78
2018-04-28T23:47:05.819Z,11.72
2018-04-28T23:49:33.221Z,11.91
2018-04-28T23:52:00.615Z,12.00
2018-04-28T23:54:28.010Z,11.85
2018-04-28T23:56:55.420Z,11.72
2018-04-28T23:59:22.803Z,11.61
